Sterling, Oklahoma
Current Conditions -  °F | °C
As of 6:58 PM on Sunday 21 Dec 2014 (Local Time) from KFSI Reporting Station
Clear Clear  
Wind Chill: 41°   Ceiling: Unl
Heat Index: 47°   Visibility: 10mi
Dew Point: 44°   Wind: 13mph
Humidity: 90%   Direction: 150°SSE
Pressure: 29.69"   Gusts: NA
Location:  34.75°N, 98.17°W
Report Text: KFSI 220058Z AUTO 15011KT 10SM CLR 08/07 A2969 RMK AO2 SLP054 T00820066
Loading
Personal Weather Stations






























Interactive Weather Map New forecast layout! Learn more

10-Day Weather Forecast

Advertisements
Track Severe Weather on mobile